createdAt,value
2017-03-21T00:00:07.068Z,0
2017-03-21T00:01:15.958Z,0
2017-03-21T00:02:25.171Z,0
2017-03-21T00:03:35.366Z,0
2017-03-21T00:04:44.905Z,0
2017-03-21T00:05:54.919Z,0
2017-03-21T00:07:04.137Z,0
2017-03-21T00:08:13.715Z,0
2017-03-21T00:09:23.592Z,0
2017-03-21T00:10:32.811Z,0
2017-03-21T00:11:42.231Z,0
2017-03-21T00:12:51.777Z,0
2017-03-21T00:14:01.971Z,0
2017-03-21T00:15:11.184Z,0
2017-03-21T00:16:20.394Z,0
2017-03-21T00:17:29.858Z,0
2017-03-21T00:18:39.403Z,0
2017-03-21T00:19:49.268Z,0
2017-03-21T00:20:58.167Z,0
2017-03-21T00:22:08.043Z,0
2017-03-21T00:23:18.013Z,0
2017-03-21T00:24:27.882Z,0
2017-03-21T00:25:37.749Z,0
2017-03-21T00:26:46.640Z,0
2017-03-21T00:27:55.527Z,0
2017-03-21T00:29:04.942Z,0
2017-03-21T00:30:14.484Z,0
2017-03-21T00:31:24.022Z,0
2017-03-21T00:32:33.561Z,0
2017-03-21T00:33:43.105Z,0
2017-03-21T00:34:52.471Z,0
2017-03-21T00:36:01.688Z,0
2017-03-21T00:37:11.231Z,0
2017-03-21T00:38:21.423Z,0
2017-03-21T00:39:30.972Z,0
2017-03-21T00:40:40.339Z,0
2017-03-21T00:41:49.565Z,0
2017-03-21T00:42:59.110Z,0
2017-03-21T00:44:08.973Z,0
2017-03-21T00:45:18.193Z,0
2017-03-21T00:46:27.181Z,0
2017-03-21T00:47:36.406Z,0
2017-03-21T00:48:46.277Z,0
2017-03-21T00:49:55.818Z,0
2017-03-21T00:51:05.042Z,0
2017-03-21T00:52:14.413Z,0
2017-03-21T00:53:24.281Z,0
2017-03-21T00:54:34.479Z,0
2017-03-21T00:55:44.025Z,0
2017-03-21T00:56:52.916Z,0
2017-03-21T00:58:02.238Z,0
2017-03-21T00:59:12.434Z,0
2017-03-21T01:00:21.645Z,0
2017-03-21T01:01:31.183Z,0
2017-03-21T01:02:40.397Z,0
2017-03-21T01:03:50.237Z,0
2017-03-21T01:04:59.780Z,0
2017-03-21T01:06:08.993Z,0
2017-03-21T01:07:18.212Z,0
2017-03-21T01:08:27.765Z,0
2017-03-21T01:09:37.434Z,0
2017-03-21T01:10:46.688Z,0
2017-03-21T01:11:55.942Z,0
2017-03-21T01:13:05.811Z,0
2017-03-21T01:14:15.030Z,0
2017-03-21T01:15:23.965Z,0
2017-03-21T01:16:33.507Z,0
2017-03-21T01:17:42.735Z,0
2017-03-21T01:18:52.289Z,0
2017-03-21T01:20:02.486Z,0
2017-03-21T01:21:11.531Z,0
2017-03-21T01:22:20.457Z,0
2017-03-21T01:23:30.370Z,0
2017-03-21T01:24:39.593Z,0
2017-03-21T01:25:49.458Z,0
2017-03-21T01:26:58.833Z,0
2017-03-21T01:28:08.389Z,0
2017-03-21T01:29:18.266Z,0
2017-03-21T01:30:27.155Z,0
2017-03-21T01:31:36.387Z,0
2017-03-21T01:32:46.009Z,0
2017-03-21T01:33:55.223Z,0
2017-03-21T01:35:04.112Z,0
2017-03-21T01:36:12.996Z,0
2017-03-21T01:37:21.887Z,0
2017-03-21T01:38:31.251Z,0
2017-03-21T01:39:40.465Z,0
2017-03-21T01:40:49.681Z,0
2017-03-21T01:41:59.225Z,0
2017-03-21T01:43:08.456Z,0
2017-03-21T01:44:18.480Z,0
2017-03-21T01:45:28.347Z,0
2017-03-21T01:46:37.235Z,0
2017-03-21T01:47:46.456Z,0
2017-03-21T01:48:56.000Z,0
2017-03-21T01:50:05.592Z,0
2017-03-21T01:51:14.811Z,0
2017-03-21T01:52:24.357Z,0
2017-03-21T01:53:34.550Z,0
2017-03-21T01:54:43.768Z,0
2017-03-21T01:55:53.032Z,0
2017-03-21T01:57:01.922Z,0
2017-03-21T01:58:11.792Z,0
2017-03-21T01:59:21.663Z,0
2017-03-21T02:00:30.875Z,0
2017-03-21T02:01:40.237Z,0
2017-03-21T02:02:49.785Z,0
2017-03-21T02:03:59.014Z,0
2017-03-21T02:05:08.228Z,0
2017-03-21T02:06:17.442Z,0
2017-03-21T02:07:27.176Z,0
2017-03-21T02:08:37.047Z,0
2017-03-21T02:09:46.588Z,0
2017-03-21T02:10:56.127Z,0
2017-03-21T02:12:05.342Z,0
2017-03-21T02:13:15.365Z,0
2017-03-21T02:14:24.909Z,0
2017-03-21T02:15:34.779Z,0
2017-03-21T02:16:43.669Z,0
2017-03-21T02:17:53.214Z,0
2017-03-21T02:19:03.234Z,0
2017-03-21T02:20:12.818Z,0
2017-03-21T02:21:22.047Z,0
2017-03-21T02:22:31.263Z,0
2017-03-21T02:23:40.490Z,0
2017-03-21T02:24:50.188Z,0
2017-03-21T02:26:00.419Z,0
2017-03-21T02:27:09.963Z,0
2017-03-21T02:28:19.514Z,0
2017-03-21T02:29:29.709Z,0
2017-03-21T02:30:38.600Z,0
2017-03-21T02:31:48.140Z,0
2017-03-21T02:32:57.685Z,0
2017-03-21T02:34:06.902Z,0
2017-03-21T02:35:15.791Z,0
2017-03-21T02:36:25.159Z,0
2017-03-21T02:37:34.050Z,0
2017-03-21T02:38:43.913Z,0
2017-03-21T02:39:53.471Z,0
2017-03-21T02:41:02.686Z,0
2017-03-21T02:42:11.949Z,0
2017-03-21T02:43:21.494Z,0
2017-03-21T02:44:31.038Z,0
2017-03-21T02:45:40.253Z,0
2017-03-21T02:46:50.152Z,0
2017-03-21T02:47:59.542Z,0
2017-03-21T02:49:09.406Z,0
2017-03-21T02:50:18.306Z,0
2017-03-21T02:51:27.846Z,0
2017-03-21T02:52:37.385Z,0
2017-03-21T02:53:47.579Z,0
2017-03-21T02:54:57.451Z,0
2017-03-21T02:56:06.662Z,0
2017-03-21T02:57:15.882Z,0
2017-03-21T02:58:25.428Z,0
2017-03-21T02:59:35.922Z,0
2017-03-21T03:00:44.812Z,0
2017-03-21T03:01:53.700Z,0
2017-03-21T03:03:02.916Z,0
2017-03-21T03:04:12.135Z,0
2017-03-21T03:05:21.820Z,0
2017-03-21T03:06:30.706Z,0
2017-03-21T03:07:39.918Z,0
2017-03-21T03:08:49.144Z,0
2017-03-21T03:09:59.013Z,0
2017-03-21T03:11:08.808Z,0
2017-03-21T03:12:18.028Z,0
2017-03-21T03:13:28.224Z,0
2017-03-21T03:14:38.092Z,0
2017-03-21T03:15:47.634Z,0
2017-03-21T03:16:57.247Z,0
2017-03-21T03:18:07.442Z,0
2017-03-21T03:19:16.991Z,0
2017-03-21T03:20:26.531Z,0
2017-03-21T03:21:35.743Z,0
2017-03-21T03:22:45.863Z,0
2017-03-21T03:23:55.404Z,0
2017-03-21T03:25:04.621Z,0
2017-03-21T03:26:13.519Z,0
2017-03-21T03:27:23.055Z,0
2017-03-21T03:28:33.400Z,0
2017-03-21T03:29:42.946Z,0
2017-03-21T03:30:51.832Z,0
2017-03-21T03:32:01.051Z,0
2017-03-21T03:33:09.944Z,0
2017-03-21T03:34:20.112Z,0
2017-03-21T03:35:29.653Z,0
2017-03-21T03:36:38.538Z,0
2017-03-21T03:37:48.408Z,0
2017-03-21T03:38:58.271Z,0
2017-03-21T03:40:07.867Z,0
2017-03-21T03:41:17.076Z,0
2017-03-21T03:42:26.292Z,0
2017-03-21T03:43:36.161Z,0
2017-03-21T03:44:45.378Z,0
2017-03-21T03:45:54.893Z,0
2017-03-21T03:47:04.109Z,0
2017-03-21T03:48:13.335Z,0
2017-03-21T03:49:23.528Z,0
2017-03-21T03:50:33.065Z,0
2017-03-21T03:51:42.008Z,0
2017-03-21T03:52:51.555Z,0
2017-03-21T03:54:01.755Z,0
2017-03-21T03:55:11.296Z,0
2017-03-21T03:56:20.515Z,0
2017-03-21T03:57:30.532Z,0
2017-03-21T03:58:40.405Z,0
2017-03-21T03:59:50.592Z,0
2017-03-21T04:01:00.127Z,0
2017-03-21T04:02:09.014Z,0
2017-03-21T04:03:18.610Z,0
2017-03-21T04:04:28.478Z,0
2017-03-21T04:05:37.409Z,0
2017-03-21T04:06:47.931Z,0
2017-03-21T04:07:57.477Z,0
2017-03-21T04:09:06.850Z,0
2017-03-21T04:10:16.388Z,0
2017-03-21T04:11:25.925Z,0
2017-03-21T04:12:35.142Z,0
2017-03-21T04:13:44.686Z,0
2017-03-21T04:14:54.381Z,0
2017-03-21T04:16:03.922Z,0
2017-03-21T04:17:13.138Z,0
2017-03-21T04:18:22.689Z,0
2017-03-21T04:19:32.884Z,0
2017-03-21T04:20:42.673Z,0
2017-03-21T04:21:52.221Z,0
2017-03-21T04:23:02.416Z,0
2017-03-21T04:24:11.952Z,0
2017-03-21T04:25:21.490Z,0
2017-03-21T04:26:30.380Z,0
2017-03-21T04:27:39.602Z,0
2017-03-21T04:28:49.470Z,0
2017-03-21T04:29:59.337Z,0
2017-03-21T04:31:08.873Z,0
2017-03-21T04:32:17.859Z,0
2017-03-21T04:33:27.072Z,0
2017-03-21T04:34:36.611Z,0
2017-03-21T04:35:45.848Z,0
2017-03-21T04:36:55.067Z,0
2017-03-21T04:38:04.713Z,0
2017-03-21T04:39:14.259Z,0
2017-03-21T04:40:23.470Z,0
2017-03-21T04:41:32.356Z,0
2017-03-21T04:42:42.229Z,0
2017-03-21T04:43:52.574Z,0
2017-03-21T04:45:02.120Z,0
2017-03-21T04:46:11.335Z,0
2017-03-21T04:47:20.877Z,0
2017-03-21T04:48:30.426Z,0
2017-03-21T04:49:39.314Z,0
2017-03-21T04:50:48.204Z,0
2017-03-21T04:51:57.748Z,0
2017-03-21T04:53:07.294Z,0
2017-03-21T04:54:17.166Z,0
2017-03-21T04:55:26.203Z,0
2017-03-21T04:56:35.092Z,0
2017-03-21T04:57:44.965Z,0
2017-03-21T04:58:54.836Z,0
2017-03-21T05:00:04.062Z,0
2017-03-21T05:01:13.276Z,0
2017-03-21T05:02:22.175Z,0
2017-03-21T05:03:31.398Z,0
2017-03-21T05:04:40.290Z,0
2017-03-21T05:05:49.182Z,0
2017-03-21T05:06:58.773Z,0
2017-03-21T05:08:08.328Z,0
2017-03-21T05:09:18.206Z,0
2017-03-21T05:10:27.431Z,0
2017-03-21T05:11:36.322Z,0
2017-03-21T05:12:46.200Z,0
2017-03-21T05:13:56.074Z,0
2017-03-21T05:15:06.272Z,0
2017-03-21T05:16:15.489Z,0
2017-03-21T05:17:24.382Z,0
2017-03-21T05:18:33.989Z,5
2017-03-21T05:19:43.205Z,5
2017-03-21T05:20:52.435Z,5
2017-03-21T05:22:01.327Z,5
2017-03-21T05:23:10.869Z,5
2017-03-21T05:24:20.143Z,5
2017-03-21T05:25:30.008Z,10
2017-03-21T05:26:39.227Z,10
2017-03-21T05:27:49.100Z,10
2017-03-21T05:28:58.983Z,10
2017-03-21T05:30:08.245Z,15
2017-03-21T05:31:17.132Z,15
2017-03-21T05:32:26.349Z,15
2017-03-21T05:33:36.268Z,20
2017-03-21T05:34:45.158Z,20
2017-03-21T05:35:54.526Z,20
2017-03-21T05:37:03.742Z,20
2017-03-21T05:38:13.614Z,25
2017-03-21T05:39:22.835Z,25
2017-03-21T05:40:32.049Z,30
2017-03-21T05:41:41.265Z,30
2017-03-21T05:42:50.807Z,30
2017-03-21T05:44:00.683Z,35
2017-03-21T05:45:10.228Z,35
2017-03-21T05:46:19.445Z,35
2017-03-21T05:47:28.407Z,40
2017-03-21T05:48:38.316Z,40
2017-03-21T05:49:48.181Z,45
2017-03-21T05:50:57.076Z,45
2017-03-21T05:52:06.943Z,45
2017-03-21T05:53:16.739Z,50
2017-03-21T05:54:26.931Z,55
2017-03-21T05:55:36.488Z,55
2017-03-21T05:56:45.699Z,55
2017-03-21T05:57:54.919Z,60
2017-03-21T05:59:04.291Z,60
2017-03-21T06:00:13.835Z,65
2017-03-21T06:01:23.375Z,70
2017-03-21T06:02:32.266Z,70
2017-03-21T06:03:41.485Z,70
2017-03-21T06:04:51.987Z,75
2017-03-21T06:06:00.901Z,80
2017-03-21T06:07:10.113Z,85
2017-03-21T06:08:19.662Z,90
2017-03-21T06:09:29.211Z,95
2017-03-21T06:10:38.195Z,100
2017-03-21T06:11:47.085Z,105
2017-03-21T06:12:56.961Z,100
2017-03-21T06:14:06.833Z,100
2017-03-21T06:15:16.048Z,95
2017-03-21T06:16:25.087Z,100
2017-03-21T06:17:34.300Z,105
2017-03-21T06:18:43.522Z,110
2017-03-21T06:19:52.737Z,115
2017-03-21T06:21:01.950Z,115
2017-03-21T06:22:11.416Z,115
2017-03-21T06:23:21.619Z,115
2017-03-21T06:24:31.163Z,115
2017-03-21T06:25:40.703Z,110
2017-03-21T06:26:49.590Z,110
2017-03-21T06:27:59.287Z,110
2017-03-21T06:29:09.172Z,110
2017-03-21T06:30:18.711Z,105
2017-03-21T06:31:27.599Z,105
2017-03-21T06:32:37.470Z,110
2017-03-21T06:33:47.439Z,120
2017-03-21T06:34:57.329Z,120
2017-03-21T06:36:07.193Z,120
2017-03-21T06:37:16.416Z,130
2017-03-21T06:38:26.000Z,135
2017-03-21T06:39:35.842Z,140
2017-03-21T06:40:45.060Z,150
2017-03-21T06:41:54.281Z,145
2017-03-21T06:43:03.499Z,155
2017-03-21T06:44:13.050Z,145
2017-03-21T06:45:22.894Z,150
2017-03-21T06:46:31.783Z,145
2017-03-21T06:47:41.651Z,140
2017-03-21T06:48:51.854Z,150
2017-03-21T06:50:01.406Z,140
2017-03-21T06:51:10.352Z,145
2017-03-21T06:52:19.894Z,150
2017-03-21T06:53:30.124Z,145
2017-03-21T06:54:39.339Z,155
2017-03-21T06:55:48.880Z,170
2017-03-21T06:56:58.901Z,180
2017-03-21T06:58:08.118Z,185
2017-03-21T06:59:18.315Z,210
2017-03-21T07:00:27.533Z,215
2017-03-21T07:01:36.763Z,220
2017-03-21T07:02:46.468Z,205
2017-03-21T07:03:56.340Z,220
2017-03-21T07:05:06.537Z,235
2017-03-21T07:06:15.425Z,215
2017-03-21T07:07:24.962Z,250
2017-03-21T07:08:34.756Z,280
2017-03-21T07:09:44.305Z,245
2017-03-21T07:10:53.521Z,235
2017-03-21T07:12:02.741Z,270
2017-03-21T07:13:12.283Z,220
2017-03-21T07:14:22.400Z,195
2017-03-21T07:15:31.938Z,160
2017-03-21T07:16:40.828Z,210
2017-03-21T07:17:50.702Z,200
2017-03-21T07:19:00.585Z,190
2017-03-21T07:20:09.884Z,170
2017-03-21T07:21:19.130Z,165
2017-03-21T07:22:28.348Z,165
2017-03-21T07:23:37.905Z,195
2017-03-21T07:24:47.125Z,190
2017-03-21T07:25:56.590Z,180
2017-03-21T07:27:05.485Z,170
2017-03-21T07:28:15.029Z,140
2017-03-21T07:29:23.924Z,180
2017-03-21T07:30:33.478Z,205
2017-03-21T07:31:43.071Z,170
2017-03-21T07:32:52.611Z,175
2017-03-21T07:34:02.486Z,180
2017-03-21T07:35:12.359Z,195
2017-03-21T07:36:21.578Z,215
2017-03-21T07:37:30.630Z,215
2017-03-21T07:38:40.183Z,230
2017-03-21T07:39:49.075Z,250
2017-03-21T07:40:57.964Z,245
2017-03-21T07:42:07.511Z,235
2017-03-21T07:43:17.226Z,270
2017-03-21T07:44:27.124Z,290
2017-03-21T07:45:36.344Z,300
2017-03-21T07:46:45.572Z,315
2017-03-21T07:47:54.474Z,320
2017-03-21T07:49:04.334Z,365
2017-03-21T07:50:14.202Z,315
2017-03-21T07:51:24.082Z,315
2017-03-21T07:52:32.973Z,310
2017-03-21T07:53:42.845Z,310
2017-03-21T07:54:52.541Z,255
2017-03-21T07:56:01.759Z,200
2017-03-21T07:57:10.982Z,180
2017-03-21T07:58:21.193Z,180
2017-03-21T07:59:31.067Z,150
2017-03-21T08:00:40.535Z,210
2017-03-21T08:01:49.754Z,255
2017-03-21T08:02:58.977Z,320
2017-03-21T08:04:08.848Z,355
2017-03-21T08:05:18.387Z,300
2017-03-21T08:06:28.307Z,260
2017-03-21T08:07:37.526Z,235
2017-03-21T08:08:47.401Z,235
2017-03-21T08:09:56.953Z,245
2017-03-21T08:11:06.176Z,280
2017-03-21T08:12:15.446Z,300
2017-03-21T08:13:24.990Z,290
2017-03-21T08:14:34.547Z,280
2017-03-21T08:15:43.766Z,275
2017-03-21T08:16:52.980Z,325
2017-03-21T08:18:02.572Z,410
2017-03-21T08:19:11.794Z,435
2017-03-21T08:20:21.342Z,390
2017-03-21T08:21:30.887Z,365
2017-03-21T08:22:40.106Z,335
2017-03-21T08:23:50.033Z,270
2017-03-21T08:24:59.263Z,270
2017-03-21T08:26:08.808Z,345
2017-03-21T08:27:18.027Z,310
2017-03-21T08:28:27.578Z,325
2017-03-21T08:29:37.601Z,435
2017-03-21T08:30:46.495Z,370
2017-03-21T08:31:55.386Z,315
2017-03-21T08:33:04.931Z,305
2017-03-21T08:34:14.158Z,405
2017-03-21T08:35:23.047Z,320
2017-03-21T08:36:31.939Z,365
2017-03-21T08:37:40.825Z,330
2017-03-21T08:38:49.719Z,345
2017-03-21T08:39:58.615Z,325
2017-03-21T08:41:08.029Z,380
2017-03-21T08:42:17.255Z,300
2017-03-21T08:43:26.806Z,310
2017-03-21T08:44:35.711Z,300
2017-03-21T08:45:44.935Z,280
2017-03-21T08:46:53.978Z,295
2017-03-21T08:48:02.876Z,290
2017-03-21T08:49:12.098Z,315
2017-03-21T08:50:20.999Z,290
2017-03-21T08:51:29.895Z,295
2017-03-21T08:52:38.834Z,280
2017-03-21T08:53:48.383Z,345
2017-03-21T08:54:57.597Z,355
2017-03-21T08:56:07.148Z,340
2017-03-21T08:57:16.045Z,415
2017-03-21T08:58:25.517Z,480
2017-03-21T08:59:35.065Z,440
2017-03-21T09:00:43.962Z,440
2017-03-21T09:01:52.868Z,390
2017-03-21T09:03:01.759Z,450
2017-03-21T09:04:10.661Z,475
2017-03-21T09:05:19.557Z,370
2017-03-21T09:06:28.774Z,315
2017-03-21T09:07:37.703Z,315
2017-03-21T09:08:46.610Z,315
2017-03-21T09:09:55.938Z,350
2017-03-21T09:11:04.830Z,355
2017-03-21T09:12:13.730Z,400
2017-03-21T09:13:22.944Z,425
2017-03-21T09:14:31.844Z,450
2017-03-21T09:15:40.844Z,500
2017-03-21T09:16:50.065Z,510
2017-03-21T09:17:58.953Z,595
2017-03-21T09:19:08.499Z,515
2017-03-21T09:20:17.712Z,575
2017-03-21T09:21:26.753Z,650
2017-03-21T09:22:35.651Z,625
2017-03-21T09:23:44.868Z,610
2017-03-21T09:24:54.090Z,470
2017-03-21T09:26:02.986Z,455
2017-03-21T09:27:12.403Z,400
2017-03-21T09:28:21.305Z,395
2017-03-21T09:29:30.525Z,390
2017-03-21T09:30:39.738Z,370
2017-03-21T09:31:48.642Z,450
2017-03-21T09:32:58.458Z,520
2017-03-21T09:34:07.356Z,510
2017-03-21T09:35:16.251Z,470
2017-03-21T09:36:25.144Z,415
2017-03-21T09:37:34.363Z,390
2017-03-21T09:38:43.261Z,325
2017-03-21T09:39:52.809Z,375
2017-03-21T09:41:02.675Z,500
2017-03-21T09:42:11.566Z,510
2017-03-21T09:43:20.783Z,495
2017-03-21T09:44:30.076Z,495
2017-03-21T09:45:38.965Z,455
2017-03-21T09:46:47.855Z,515
2017-03-21T09:47:57.732Z,555
2017-03-21T09:49:06.627Z,545
2017-03-21T09:50:15.671Z,510
2017-03-21T09:51:24.570Z,565
2017-03-21T09:52:33.463Z,555
2017-03-21T09:53:43.002Z,590
2017-03-21T09:54:52.217Z,610
2017-03-21T09:56:01.812Z,630
2017-03-21T09:57:10.704Z,555
2017-03-21T09:58:19.921Z,550
2017-03-21T10:00:00.860Z,300
2017-03-21T10:01:09.901Z,220
2017-03-21T10:02:18.797Z,230
2017-03-21T10:03:27.694Z,220
2017-03-21T10:04:36.587Z,200
2017-03-21T10:05:45.478Z,210
2017-03-21T10:06:54.530Z,220
2017-03-21T10:08:03.430Z,220
2017-03-21T10:09:12.975Z,225
2017-03-21T10:10:22.190Z,235
2017-03-21T10:11:31.084Z,245
2017-03-21T10:12:40.124Z,265
2017-03-21T10:13:49.013Z,275
2017-03-21T10:14:57.901Z,330
2017-03-21T10:16:07.123Z,350
2017-03-21T10:17:16.029Z,370
2017-03-21T10:18:25.071Z,385
2017-03-21T10:19:33.979Z,395
2017-03-21T10:20:42.871Z,355
2017-03-21T10:21:51.760Z,360
2017-03-21T10:23:00.981Z,360
2017-03-21T10:24:10.771Z,355
2017-03-21T10:25:19.658Z,365
2017-03-21T10:26:28.878Z,360
2017-03-21T10:27:37.764Z,385
2017-03-21T10:28:46.980Z,330
2017-03-21T10:29:55.973Z,350
2017-03-21T10:31:04.863Z,370
2017-03-21T10:32:13.749Z,360
2017-03-21T10:33:23.294Z,385
2017-03-21T10:34:32.515Z,360
2017-03-21T10:35:41.561Z,380
2017-03-21T10:36:50.775Z,425
2017-03-21T10:37:59.662Z,555
2017-03-21T10:39:08.876Z,610
2017-03-21T10:40:17.772Z,600
2017-03-21T10:41:26.822Z,630
2017-03-21T10:42:35.710Z,580
2017-03-21T10:43:44.613Z,620
2017-03-21T10:44:53.831Z,595
2017-03-21T10:46:02.722Z,680
2017-03-21T10:47:11.672Z,735
2017-03-21T10:48:20.565Z,755
2017-03-21T10:49:29.455Z,765
2017-03-21T10:50:38.354Z,685
2017-03-21T10:51:47.246Z,720
2017-03-21T10:52:56.610Z,635
2017-03-21T10:54:06.152Z,535
2017-03-21T10:55:15.045Z,440
2017-03-21T10:56:23.941Z,305
2017-03-21T10:57:33.163Z,305
2017-03-21T10:58:42.758Z,290
2017-03-21T10:59:51.660Z,250
2017-03-21T11:01:00.873Z,210
2017-03-21T11:02:10.087Z,165
2017-03-21T11:03:19.308Z,145
2017-03-21T11:04:29.004Z,145
2017-03-21T11:05:38.223Z,120
2017-03-21T11:06:47.446Z,105
2017-03-21T11:07:56.694Z,100
2017-03-21T11:09:05.908Z,135
2017-03-21T11:10:15.277Z,165
2017-03-21T11:11:24.171Z,165
2017-03-21T11:12:33.421Z,175
2017-03-21T11:13:42.645Z,205
2017-03-21T11:14:51.537Z,190
2017-03-21T11:16:01.356Z,165
2017-03-21T11:17:10.574Z,285
2017-03-21T11:18:20.117Z,510
2017-03-21T11:19:29.009Z,665
2017-03-21T11:20:37.901Z,700
2017-03-21T11:21:47.216Z,670
2017-03-21T11:22:56.435Z,635
2017-03-21T11:24:05.661Z,590
2017-03-21T11:25:14.876Z,560
2017-03-21T11:26:23.770Z,570
2017-03-21T11:27:32.912Z,555
2017-03-21T11:28:41.800Z,560
2017-03-21T11:29:50.694Z,555
2017-03-21T11:30:59.585Z,555
2017-03-21T11:32:08.801Z,560
2017-03-21T11:33:18.822Z,560
2017-03-21T11:34:28.040Z,545
2017-03-21T11:35:36.931Z,550
2017-03-21T11:36:46.152Z,560
2017-03-21T11:37:55.049Z,575
2017-03-21T11:39:04.038Z,600
2017-03-21T11:40:12.937Z,600
2017-03-21T11:41:22.152Z,610
2017-03-21T11:42:31.040Z,610
2017-03-21T11:43:39.930Z,620
2017-03-21T11:44:49.072Z,645
2017-03-21T11:45:58.298Z,675
2017-03-21T11:47:07.513Z,685
2017-03-21T11:48:16.400Z,720
2017-03-21T11:49:25.291Z,635
2017-03-21T11:50:34.327Z,460
2017-03-21T11:51:43.543Z,390
2017-03-21T11:52:53.770Z,350
2017-03-21T11:54:02.666Z,375
2017-03-21T11:55:11.884Z,390
2017-03-21T11:56:21.175Z,395
2017-03-21T11:57:30.063Z,390
2017-03-21T11:58:39.283Z,385
2017-03-21T11:59:48.174Z,435
2017-03-21T12:00:57.073Z,445
2017-03-21T12:02:06.116Z,540
2017-03-21T12:03:15.007Z,645
2017-03-21T12:04:24.225Z,1180
2017-03-21T12:05:33.443Z,670
2017-03-21T12:06:42.661Z,565
2017-03-21T12:07:52.511Z,600
2017-03-21T12:09:02.064Z,465
2017-03-21T12:10:11.282Z,655
2017-03-21T12:11:20.832Z,400
2017-03-21T12:12:29.728Z,485
2017-03-21T12:13:38.722Z,570
2017-03-21T12:14:47.613Z,820
2017-03-21T12:15:56.832Z,975
2017-03-21T12:17:06.077Z,835
2017-03-21T12:18:14.965Z,2700
2017-03-21T12:19:24.674Z,1935
2017-03-21T12:20:33.895Z,640
2017-03-21T12:21:42.790Z,730
2017-03-21T12:22:51.686Z,840
2017-03-21T12:24:00.903Z,695
2017-03-21T12:25:09.952Z,540
2017-03-21T12:26:18.851Z,450
2017-03-21T12:27:28.729Z,410
2017-03-21T12:28:38.287Z,330
2017-03-21T12:29:47.509Z,280
2017-03-21T12:30:56.464Z,310
2017-03-21T12:32:05.690Z,350
2017-03-21T12:33:14.914Z,475
2017-03-21T12:34:23.815Z,530
2017-03-21T12:35:32.711Z,1515
2017-03-21T12:36:41.855Z,1830
2017-03-21T12:37:51.736Z,1530
2017-03-21T12:39:00.955Z,2070
2017-03-21T12:40:10.171Z,1820
2017-03-21T12:41:19.394Z,1045
2017-03-21T12:42:28.989Z,1325
2017-03-21T12:43:37.887Z,1555
2017-03-21T12:44:46.782Z,1800
2017-03-21T12:45:55.682Z,1725
2017-03-21T12:47:04.912Z,1740
2017-03-21T12:48:14.441Z,795
2017-03-21T12:49:24.317Z,565
2017-03-21T12:50:33.545Z,1425
2017-03-21T12:51:42.440Z,1265
2017-03-21T12:52:51.657Z,1160
2017-03-21T12:54:00.707Z,1410
2017-03-21T12:55:09.604Z,755
2017-03-21T12:56:18.502Z,755
2017-03-21T12:57:27.398Z,2085
2017-03-21T12:58:36.291Z,1615
2017-03-21T12:59:45.334Z,1645
2017-03-21T13:00:54.229Z,940
2017-03-21T13:02:03.135Z,2320
2017-03-21T13:03:12.701Z,2020
2017-03-21T13:04:21.607Z,915
2017-03-21T13:05:30.904Z,1095
2017-03-21T13:06:40.458Z,1640
2017-03-21T13:07:49.693Z,2115
2017-03-21T13:08:58.922Z,2210
2017-03-21T13:10:08.152Z,1075
2017-03-21T13:11:17.423Z,1645
2017-03-21T13:12:26.644Z,1660
2017-03-21T13:13:35.547Z,1690
2017-03-21T13:14:44.778Z,835
2017-03-21T13:15:54.002Z,1020
2017-03-21T13:17:03.016Z,905
2017-03-21T13:18:12.240Z,380
2017-03-21T13:19:21.539Z,425
2017-03-21T13:20:31.015Z,1430
2017-03-21T13:21:39.912Z,920
2017-03-21T13:22:48.941Z,1700
2017-03-21T13:23:58.163Z,555
2017-03-21T13:25:07.097Z,395
2017-03-21T13:26:16.000Z,335
2017-03-21T13:27:25.237Z,345
2017-03-21T13:28:34.288Z,395
2017-03-21T13:29:43.843Z,385
2017-03-21T13:30:52.774Z,400
2017-03-21T13:32:01.687Z,420
2017-03-21T13:33:10.913Z,510
2017-03-21T13:34:19.862Z,510
2017-03-21T13:35:28.757Z,520
2017-03-21T13:36:37.987Z,1235
2017-03-21T13:37:47.216Z,1050
2017-03-21T13:38:56.772Z,1225
2017-03-21T13:40:06.125Z,1150
2017-03-21T13:41:15.342Z,1095
2017-03-21T13:42:24.251Z,900
2017-03-21T13:43:33.502Z,825
2017-03-21T13:44:42.408Z,570
2017-03-21T13:45:51.566Z,530
2017-03-21T13:47:00.496Z,870
2017-03-21T13:48:10.532Z,530
2017-03-21T13:49:19.446Z,485
2017-03-21T13:50:28.342Z,465
2017-03-21T13:51:37.612Z,460
2017-03-21T13:52:47.499Z,520
2017-03-21T13:53:57.060Z,680
2017-03-21T13:55:05.952Z,1130
2017-03-21T13:56:15.185Z,995
2017-03-21T13:57:24.399Z,735
2017-03-21T13:58:33.632Z,670
2017-03-21T13:59:42.528Z,1515
2017-03-21T14:00:51.751Z,2115
2017-03-21T14:02:00.983Z,2500
2017-03-21T14:03:10.204Z,2670
2017-03-21T14:04:19.775Z,2455
2017-03-21T14:05:29.165Z,2475
2017-03-21T14:06:38.085Z,2305
2017-03-21T14:07:47.316Z,2020
2017-03-21T14:08:56.868Z,1795
2017-03-21T14:10:05.775Z,1660
2017-03-21T14:11:14.678Z,1840
2017-03-21T14:12:24.238Z,1870
2017-03-21T14:13:33.144Z,1780
2017-03-21T14:14:42.373Z,1940
2017-03-21T14:15:51.594Z,1895
2017-03-21T14:17:00.976Z,1935
2017-03-21T14:18:10.197Z,2325
2017-03-21T14:19:19.420Z,2320
2017-03-21T14:20:28.318Z,2555
2017-03-21T14:21:37.223Z,2590
2017-03-21T14:22:46.704Z,2800
2017-03-21T14:23:55.612Z,2690
2017-03-21T14:25:04.512Z,2570
2017-03-21T14:26:13.412Z,2460
2017-03-21T14:27:22.641Z,2180
2017-03-21T14:28:32.346Z,2145
2017-03-21T14:29:41.579Z,2065
2017-03-21T14:30:50.482Z,1890
2017-03-21T14:31:59.386Z,1830
2017-03-21T14:33:08.291Z,1815
2017-03-21T14:34:17.441Z,2110
2017-03-21T14:35:26.340Z,2515
2017-03-21T14:36:35.569Z,2755
2017-03-21T14:37:44.468Z,2675
2017-03-21T14:38:54.346Z,2635
2017-03-21T14:40:03.302Z,2605
2017-03-21T14:41:12.855Z,2440
2017-03-21T14:42:22.412Z,2240
2017-03-21T14:43:31.318Z,1865
2017-03-21T14:44:40.559Z,1855
2017-03-21T14:45:49.837Z,1895
2017-03-21T14:46:58.737Z,1955
2017-03-21T14:48:08.623Z,1950
2017-03-21T14:49:17.862Z,1525
2017-03-21T14:50:27.107Z,1185
2017-03-21T14:51:36.263Z,1115
2017-03-21T14:52:45.825Z,1200
2017-03-21T14:53:55.382Z,1280
2017-03-21T14:55:05.586Z,1345
2017-03-21T14:56:14.815Z,1625
2017-03-21T14:57:24.190Z,1720
2017-03-21T14:58:33.092Z,1160
2017-03-21T14:59:42.329Z,1155
2017-03-21T15:00:51.234Z,1335
2017-03-21T15:02:00.150Z,1210
2017-03-21T15:03:09.748Z,1145
2017-03-21T15:04:19.666Z,1170
2017-03-21T15:05:28.576Z,1235
2017-03-21T15:06:37.491Z,1205
2017-03-21T15:07:47.043Z,1255
2017-03-21T15:08:56.326Z,1190
2017-03-21T15:10:05.235Z,1145
2017-03-21T15:11:14.148Z,930
2017-03-21T15:12:23.064Z,970
2017-03-21T15:13:32.296Z,1280
2017-03-21T15:14:41.878Z,1495
2017-03-21T15:15:51.107Z,1370
2017-03-21T15:17:00.330Z,1420
2017-03-21T15:18:09.231Z,860
2017-03-21T15:19:18.130Z,875
2017-03-21T15:20:27.178Z,870
2017-03-21T15:21:36.401Z,925
2017-03-21T15:22:45.301Z,1070
2017-03-21T15:23:54.200Z,935
2017-03-21T15:25:03.099Z,920
2017-03-21T15:26:12.368Z,765
2017-03-21T15:27:21.594Z,720
2017-03-21T15:28:30.819Z,730
2017-03-21T15:29:40.055Z,765
2017-03-21T15:30:49.328Z,845
2017-03-21T15:31:58.575Z,795
2017-03-21T15:33:07.801Z,840
2017-03-21T15:34:16.705Z,1000
2017-03-21T15:35:25.602Z,1180
2017-03-21T15:36:34.820Z,1035
2017-03-21T15:37:44.633Z,965
2017-03-21T15:38:53.855Z,885
2017-03-21T15:40:02.745Z,685
2017-03-21T15:41:11.636Z,565
2017-03-21T15:42:21.185Z,500
2017-03-21T15:43:30.561Z,510
2017-03-21T15:44:40.105Z,505
2017-03-21T15:45:49.646Z,505
2017-03-21T15:46:58.539Z,490
2017-03-21T15:48:08.104Z,500
2017-03-21T15:49:17.492Z,505
2017-03-21T15:50:26.388Z,540
2017-03-21T15:51:35.276Z,550
2017-03-21T15:52:44.171Z,505
2017-03-21T15:53:53.070Z,485
2017-03-21T15:55:02.870Z,510
2017-03-21T15:56:12.105Z,470
2017-03-21T15:57:21.004Z,460
2017-03-21T15:58:29.899Z,500
2017-03-21T15:59:39.118Z,525
2017-03-21T16:00:48.485Z,560
2017-03-21T16:01:57.712Z,525
2017-03-21T16:03:06.936Z,505
2017-03-21T16:04:16.155Z,495
2017-03-21T16:05:25.049Z,490
2017-03-21T16:06:34.349Z,505
2017-03-21T16:07:43.238Z,495
2017-03-21T16:08:52.461Z,480
2017-03-21T16:10:02.007Z,455
2017-03-21T16:11:10.901Z,420
2017-03-21T16:12:20.194Z,410
2017-03-21T16:13:30.066Z,425
2017-03-21T16:14:39.285Z,370